Mariposa, CA

4:44 AM PDT on April 21, 2015 (GMT -0700)
Fresno Yosemite International | | Change Station
CLOSE
Current Station
Airport
Location: Fresno,
Elevation: 328 ft
Nearby Weather Stations

Elev 328 ft 36.78 °N, 119.72 °W | Updated 51 minutes ago

Clear
Clear
59 °F
Feels Like 59 °F
N
8
Wind Variable Wind from NW

Today
High -- | Low -- °F
--% Chance of Precip.
Yesterday
High -- | Low -- °F
Precip. -- in
6:16 AM 7:40 PM
Waxing Crescent, 10% visible
Pressure 29.77 in
Visibility 10.0 miles
Clouds Clear
Dew Point 49 °F
Humidity 69%
Rainfall 0.00 in
Snow Depth Not available.
UV 0 out of 12
Pollen 8.70 out of 12
Air Quality Not available.
Flu Activity Sporadic
METAR KFAT 211053Z 31007KT 10SM CLR 15/09 A2977 RMK AO2 SLP079 T01500094

More Conditions Fewer Conditions

Pressure 29.77 in
Visibility 10.0 miles
Clouds Clear
Dew Point 49 °F
Humidity 69%
Rainfall 0.00 in
Snow Depth Not available.
UV 0 out of 12
Pollen 8.70 out of 12
Air Quality Not available.
Flu Activity Sporadic
METAR KFAT 211053Z 31007KT 10SM CLR 15/09 A2977 RMK AO2 SLP079 T01500094

More Conditions Fewer Conditions

10-Day Weather Forecast

Almanac

Astronomy

Apr. 21, 2015 Rise Set
Actual Time
Civil Twilight
Nautical Twilight
Astronomical Twilight
Moon
Length of Visible Light
Length of Day
Tomorrow will be .
, % of the Moon is Illuminated

Today's Extremes

State Highs State Lows

Community

WunderPhotos

Upload Photos

1,815,349 photos uploaded!

WunderBlogs® & News

Nearby

Air Quality

  Air Quality AQ Index Pollutant
Not available.

Snow Depth

Station Depth Elevation

Earthquake Activity

City Distance Mag. Time & Date
Minimum magnitude displayed is 2.5.

Coastal Water Temperatures

Place Temperature

Stations

Nearby Weather Stations

Station Location Temp. Windchill Dew Point Humidity Wind Precip. Elev Updated Type